createdAt,value
2023-04-06T00:01:00.548Z,3.78
2023-04-06T00:03:28.439Z,4.07
2023-04-06T00:05:56.137Z,4.15
2023-04-06T00:08:25.376Z,4.38
2023-04-06T00:10:52.849Z,3.70
2023-04-06T00:13:20.315Z,3.17
2023-04-06T00:15:47.886Z,3.67
2023-04-06T00:18:15.405Z,3.75
2023-04-06T00:20:45.397Z,3.90
2023-04-06T00:23:13.115Z,3.00
2023-04-06T00:25:40.707Z,3.95
2023-04-06T00:28:08.287Z,3.17
2023-04-06T00:30:35.960Z,3.60
2023-04-06T00:33:03.615Z,3.63
2023-04-06T00:35:31.201Z,2.10
2023-04-06T00:37:58.908Z,2.05
2023-04-06T00:40:26.654Z,2.25
2023-04-06T00:42:54.167Z,2.22
2023-04-06T00:45:21.922Z,2.50
2023-04-06T00:47:49.487Z,1.95
2023-04-06T00:50:17.444Z,1.52
2023-04-06T00:52:45.074Z,1.90
2023-04-06T00:55:12.807Z,1.75
2023-04-06T00:57:40.298Z,1.25
2023-04-06T01:00:08.418Z,1.58
2023-04-06T01:02:36.142Z,1.77
2023-04-06T01:05:03.772Z,1.55
2023-04-06T01:07:31.262Z,1.73
2023-04-06T01:09:59.882Z,1.70
2023-04-06T01:12:28.449Z,1.73
2023-04-06T01:14:56.249Z,1.98
2023-04-06T01:17:26.938Z,1.75
2023-04-06T01:19:55.488Z,2.13
2023-04-06T01:22:23.034Z,1.42
2023-04-06T01:24:50.687Z,1.00
2023-04-06T01:27:18.288Z,1.77
2023-04-06T01:29:46.186Z,1.30
2023-04-06T01:32:13.726Z,1.40
2023-04-06T01:34:43.987Z,1.23
2023-04-06T01:37:12.116Z,1.55
2023-04-06T01:39:39.554Z,1.63
2023-04-06T01:42:07.210Z,1.20
2023-04-06T01:44:34.637Z,1.88
2023-04-06T01:47:02.923Z,1.30
2023-04-06T01:49:30.680Z,2.42
2023-04-06T01:51:58.318Z,1.40
2023-04-06T01:54:26.075Z,1.30
2023-04-06T01:56:54.333Z,1.25
2023-04-06T01:59:22.079Z,1.90
2023-04-06T02:01:49.541Z,1.65
2023-04-06T02:04:17.241Z,2.60
2023-04-06T02:06:44.832Z,1.50
2023-04-06T02:09:12.562Z,1.63
2023-04-06T02:11:40.074Z,1.65
2023-04-06T02:14:07.617Z,1.90
2023-04-06T02:16:35.202Z,2.03
2023-04-06T02:19:02.724Z,2.00
2023-04-06T02:21:30.236Z,1.67
2023-04-06T02:23:57.652Z,1.75
2023-04-06T02:26:25.408Z,1.83
2023-04-06T02:28:52.929Z,2.88
2023-04-06T02:31:20.468Z,2.33
2023-04-06T02:33:48.282Z,2.08
2023-04-06T02:36:16.478Z,2.40
2023-04-06T02:38:44.105Z,1.52
2023-04-06T02:41:11.804Z,1.88
2023-04-06T02:43:39.495Z,1.98
2023-04-06T02:46:07.004Z,1.90
2023-04-06T02:48:37.748Z,2.22
2023-04-06T02:51:05.428Z,1.77
2023-04-06T02:53:32.973Z,1.92
2023-04-06T02:56:00.550Z,1.63
2023-04-06T02:58:28.083Z,1.85
2023-04-06T03:00:55.780Z,1.95
2023-04-06T03:03:23.517Z,2.00
2023-04-06T03:05:52.029Z,2.88
2023-04-06T03:08:22.206Z,1.52
2023-04-06T03:10:49.915Z,2.30
2023-04-06T03:13:17.485Z,2.15
2023-04-06T03:15:45.423Z,2.33
2023-04-06T03:18:13.018Z,2.17
2023-04-06T03:20:40.581Z,2.40
2023-04-06T03:23:08.252Z,2.22
2023-04-06T03:25:35.833Z,2.60
2023-04-06T03:28:03.447Z,3.00
2023-04-06T03:30:31.100Z,2.50
2023-04-06T03:32:58.653Z,2.30
2023-04-06T03:35:26.447Z,2.55
2023-04-06T03:37:54.199Z,3.45
2023-04-06T03:40:22.117Z,3.00
2023-04-06T03:42:49.559Z,2.58
2023-04-06T03:45:19.880Z,2.60
2023-04-06T03:47:48.285Z,3.05
2023-04-06T03:50:16.066Z,2.53
2023-04-06T03:52:43.735Z,2.30
2023-04-06T03:55:11.350Z,3.08
2023-04-06T03:57:39.315Z,3.65
2023-04-06T04:00:07.487Z,3.50
2023-04-06T04:02:36.036Z,2.58
2023-04-06T04:05:03.846Z,3.60
2023-04-06T04:07:32.450Z,3.80
2023-04-06T04:09:59.941Z,4.07
2023-04-06T04:12:27.467Z,4.35
2023-04-06T04:14:55.139Z,4.45
2023-04-06T04:17:23.475Z,4.53
2023-04-06T04:19:51.208Z,4.32
2023-04-06T04:22:18.675Z,4.45
2023-04-06T04:24:46.184Z,3.00
2023-04-06T04:27:13.708Z,5.68
2023-04-06T04:29:41.497Z,3.70
2023-04-06T04:32:09.147Z,4.13
2023-04-06T04:34:37.822Z,3.67
2023-04-06T04:37:05.309Z,4.07
2023-04-06T04:39:32.995Z,3.38
2023-04-06T04:42:00.780Z,3.30
2023-04-06T04:44:28.270Z,3.10
2023-04-06T04:46:56.189Z,2.28
2023-04-06T04:49:23.919Z,1.88
2023-04-06T04:51:54.123Z,2.42
2023-04-06T04:54:21.707Z,2.15
2023-04-06T04:56:49.231Z,1.48
2023-04-06T04:59:17.211Z,1.92
2023-04-06T05:01:54.347Z,1.38
2023-04-06T05:04:22.999Z,1.90
2023-04-06T05:06:50.726Z,1.48
2023-04-06T05:09:19.152Z,1.55
2023-04-06T05:11:46.674Z,1.38
2023-04-06T05:14:14.231Z,2.08
2023-04-06T05:16:41.729Z,1.48
2023-04-06T05:19:09.691Z,1.45
2023-04-06T05:21:40.251Z,2.95
2023-04-06T05:24:11.979Z,1.63
2023-04-06T05:26:42.426Z,1.08
2023-04-06T05:29:10.183Z,1.23
2023-04-06T05:31:38.152Z,1.83
2023-04-06T05:34:05.767Z,0.98
2023-04-06T05:36:34.063Z,1.20
2023-04-06T05:39:01.630Z,0.93
2023-04-06T05:41:29.115Z,1.10
2023-04-06T05:43:57.173Z,0.90
2023-04-06T05:46:24.860Z,1.13
2023-04-06T05:48:52.584Z,0.93
2023-04-06T05:51:20.224Z,1.02
2023-04-06T05:53:47.971Z,1.20
2023-04-06T05:56:15.518Z,1.35
2023-04-06T05:58:43.137Z,0.90
2023-04-06T06:01:11.566Z,1.20
2023-04-06T06:03:39.191Z,1.02
2023-04-06T06:06:07.091Z,0.98
2023-04-06T06:08:34.687Z,1.20
2023-04-06T06:11:03.721Z,1.48
2023-04-06T06:13:31.617Z,1.00
2023-04-06T06:15:59.471Z,2.15
2023-04-06T06:18:27.345Z,0.80
2023-04-06T06:20:55.906Z,1.00
2023-04-06T06:23:23.543Z,1.88
2023-04-06T06:25:51.349Z,0.98
2023-04-06T06:28:19.256Z,0.70
2023-04-06T06:30:46.831Z,1.00
2023-04-06T06:33:14.322Z,0.80
2023-04-06T06:35:42.093Z,1.10
2023-04-06T06:38:09.731Z,1.33
2023-04-06T06:40:37.331Z,0.70
2023-04-06T06:43:04.934Z,0.70
2023-04-06T06:45:33.043Z,0.52
2023-04-06T06:48:00.645Z,0.77
2023-04-06T06:50:28.864Z,0.85
2023-04-06T06:52:56.466Z,0.85
2023-04-06T06:55:24.013Z,0.45
2023-04-06T06:57:51.827Z,1.17
2023-04-06T07:00:19.651Z,0.60
2023-04-06T07:02:47.301Z,0.52
2023-04-06T07:05:27.016Z,1.00
2023-04-06T07:07:56.513Z,0.90
2023-04-06T07:10:24.501Z,0.60
2023-04-06T07:12:52.243Z,0.73
2023-04-06T07:15:19.825Z,0.57
2023-04-06T07:17:47.306Z,0.95
2023-04-06T07:20:15.130Z,0.70
2023-04-06T07:22:47.504Z,1.08
2023-04-06T07:25:15.112Z,0.70
2023-04-06T07:27:42.798Z,0.85
2023-04-06T07:30:10.745Z,1.42
2023-04-06T07:32:38.500Z,0.65
2023-04-06T07:35:06.443Z,0.80
2023-04-06T07:37:33.961Z,1.20
2023-04-06T07:40:01.552Z,0.80
2023-04-06T07:42:29.195Z,0.82
2023-04-06T07:44:57.818Z,0.70
2023-04-06T07:47:25.696Z,0.85
2023-04-06T07:49:53.291Z,0.80
2023-04-06T07:52:20.977Z,1.00
2023-04-06T07:54:50.409Z,0.80
2023-04-06T07:57:17.888Z,0.60
2023-04-06T07:59:45.507Z,1.45
2023-04-06T08:02:13.092Z,1.10
2023-04-06T08:04:40.681Z,1.08
2023-04-06T08:07:08.512Z,1.25
2023-04-06T08:09:36.174Z,1.10
2023-04-06T08:12:03.733Z,0.80
2023-04-06T08:14:31.330Z,0.80
2023-04-06T08:16:59.203Z,1.02
2023-04-06T08:19:29.392Z,1.17
2023-04-06T08:21:57.024Z,1.08
2023-04-06T08:24:24.487Z,1.63
2023-04-06T08:26:53.092Z,1.20
2023-04-06T08:29:21.091Z,1.42
2023-04-06T08:31:48.671Z,1.35
2023-04-06T08:34:16.849Z,0.95
2023-04-06T08:36:44.558Z,1.13
2023-04-06T08:39:12.435Z,0.90
2023-04-06T08:41:39.934Z,1.10
2023-04-06T08:44:07.671Z,1.70
2023-04-06T08:46:35.417Z,1.15
2023-04-06T08:49:03.683Z,1.20
2023-04-06T08:51:32.209Z,1.13
2023-04-06T08:54:02.590Z,0.70
2023-04-06T08:56:30.245Z,1.52
2023-04-06T08:58:58.261Z,0.80
2023-04-06T09:01:27.868Z,0.77
2023-04-06T09:03:59.967Z,0.95
2023-04-06T09:06:28.744Z,1.37
2023-04-06T09:08:59.500Z,1.10
2023-04-06T09:11:27.311Z,1.00
2023-04-06T09:13:56.849Z,1.70
2023-04-06T09:16:25.432Z,1.30
2023-04-06T09:18:53.228Z,0.98
2023-04-06T09:21:23.745Z,0.80
2023-04-06T09:24:02.979Z,1.52
2023-04-06T09:26:30.756Z,1.10
2023-04-06T09:29:01.212Z,1.58
2023-04-06T09:31:30.715Z,1.15
2023-04-06T09:33:59.094Z,1.27
2023-04-06T09:36:33.902Z,1.40
2023-04-06T09:39:03.934Z,2.05
2023-04-06T09:41:35.402Z,1.10
2023-04-06T09:44:10.558Z,0.80
2023-04-06T09:46:54.986Z,1.20
2023-04-06T09:49:28.387Z,1.25
2023-04-06T09:51:57.906Z,1.05
2023-04-06T09:54:26.526Z,1.00
2023-04-06T09:56:57.636Z,1.02
2023-04-06T09:59:33.433Z,1.02
2023-04-06T10:02:01.777Z,1.30
2023-04-06T10:04:35.538Z,1.17
2023-04-06T10:07:03.964Z,0.90
2023-04-06T10:09:37.686Z,1.75
2023-04-06T10:12:06.244Z,2.22
2023-04-06T10:14:39.261Z,1.42
2023-04-06T10:17:07.070Z,2.13
2023-04-06T10:19:54.909Z,1.45
2023-04-06T10:22:31.847Z,1.98
2023-04-06T10:24:59.885Z,2.08
2023-04-06T10:27:33.986Z,1.38
2023-04-06T10:30:08.099Z,1.20
2023-04-06T10:32:37.741Z,1.42
2023-04-06T10:35:12.326Z,1.50
2023-04-06T10:38:02.038Z,1.25
2023-04-06T10:40:30.082Z,1.90
2023-04-06T10:42:58.436Z,1.48
2023-04-06T10:45:27.504Z,1.42
2023-04-06T10:47:55.546Z,1.73
2023-04-06T10:50:23.808Z,1.83
2023-04-06T10:53:01.541Z,1.85
2023-04-06T10:55:32.328Z,0.80
2023-04-06T10:57:59.848Z,1.27
2023-04-06T11:00:39.420Z,2.05
2023-04-06T11:03:15.103Z,1.23
2023-04-06T11:05:49.911Z,1.80
2023-04-06T11:08:27.386Z,3.17
2023-04-06T11:11:05.895Z,1.52
2023-04-06T11:13:44.322Z,1.58
2023-04-06T11:16:38.197Z,2.15
2023-04-06T11:19:08.541Z,2.17
2023-04-06T11:21:45.203Z,3.92
2023-04-06T11:24:17.105Z,1.65
2023-04-06T11:26:50.124Z,1.92
2023-04-06T11:29:18.609Z,1.48
2023-04-06T11:31:54.135Z,1.55
2023-04-06T11:34:25.457Z,2.17
2023-04-06T11:36:58.328Z,2.28
2023-04-06T11:39:27.548Z,1.05
2023-04-06T11:41:56.368Z,1.65
2023-04-06T11:44:38.251Z,1.30
2023-04-06T11:47:09.464Z,1.75
2023-04-06T11:49:41.747Z,1.30
2023-04-06T11:52:25.457Z,2.10
2023-04-06T11:54:54.035Z,1.38
2023-04-06T11:57:22.754Z,1.88
2023-04-06T11:59:52.900Z,4.20
2023-04-06T12:02:20.834Z,1.13
2023-04-06T12:04:48.684Z,1.77
2023-04-06T12:07:16.735Z,1.23
2023-04-06T12:09:45.058Z,1.10
2023-04-06T12:12:12.634Z,1.23
2023-04-06T12:14:40.854Z,1.30
2023-04-06T12:17:08.605Z,2.17
2023-04-06T12:19:37.039Z,1.27
2023-04-06T12:22:04.593Z,1.70
2023-04-06T12:24:32.505Z,1.35
2023-04-06T12:27:09.271Z,1.85
2023-04-06T12:29:37.894Z,1.20
2023-04-06T12:32:05.366Z,2.00
2023-04-06T12:34:33.065Z,1.10
2023-04-06T12:37:01.169Z,1.25
2023-04-06T12:39:29.572Z,1.55
2023-04-06T12:41:57.854Z,2.00
2023-04-06T12:44:26.813Z,2.03
2023-04-06T12:46:54.986Z,1.08
2023-04-06T12:49:23.518Z,1.00
2023-04-06T12:51:51.897Z,1.60
2023-04-06T12:54:19.598Z,1.17
2023-04-06T12:56:47.508Z,1.27
2023-04-06T12:59:15.204Z,1.73
2023-04-06T13:01:42.796Z,1.15
2023-04-06T13:04:10.483Z,3.20
2023-04-06T13:06:38.139Z,1.20
2023-04-06T13:09:09.488Z,1.23
2023-04-06T13:11:37.393Z,1.48
2023-04-06T13:14:05.019Z,2.67
2023-04-06T13:16:35.208Z,2.70
2023-04-06T13:19:03.079Z,1.50
2023-04-06T13:21:31.383Z,1.20
2023-04-06T13:23:58.938Z,1.23
2023-04-06T13:26:29.264Z,1.13
2023-04-06T13:28:58.569Z,1.58
2023-04-06T13:31:26.089Z,1.20
2023-04-06T13:33:53.663Z,1.30
2023-04-06T13:36:21.386Z,0.98
2023-04-06T13:38:49.016Z,1.48
2023-04-06T13:41:23.101Z,2.03
2023-04-06T13:43:50.839Z,1.63
2023-04-06T13:46:19.020Z,1.98
2023-04-06T13:48:46.960Z,1.17
2023-04-06T13:51:15.584Z,1.80
2023-04-06T13:53:43.082Z,1.30
2023-04-06T13:56:13.369Z,1.48
2023-04-06T13:58:41.265Z,2.72
2023-04-06T14:01:11.382Z,2.03
2023-04-06T14:03:41.025Z,2.35
2023-04-06T14:08:45.220Z,1.67
2023-04-06T14:11:13.912Z,2.10
2023-04-06T14:13:42.015Z,1.60
2023-04-06T14:16:12.446Z,1.65
2023-04-06T14:18:40.334Z,2.28
2023-04-06T14:21:08.267Z,1.33
2023-04-06T14:23:37.134Z,1.90
2023-04-06T14:26:08.380Z,2.63
2023-04-06T14:28:36.562Z,2.80
2023-04-06T14:31:11.028Z,2.45
2023-04-06T14:33:39.381Z,1.73
2023-04-06T14:36:07.244Z,1.92
2023-04-06T14:38:34.792Z,2.22
2023-04-06T14:41:03.038Z,1.40
2023-04-06T14:43:30.595Z,2.13
2023-04-06T14:46:01.781Z,1.80
2023-04-06T14:48:29.882Z,1.90
2023-04-06T14:50:58.343Z,2.00
2023-04-06T14:53:26.142Z,1.77
2023-04-06T14:55:54.054Z,2.33
2023-04-06T14:58:22.691Z,1.55
2023-04-06T15:00:51.180Z,2.97
2023-04-06T15:03:19.010Z,1.25
2023-04-06T15:05:46.703Z,1.45
2023-04-06T15:08:16.832Z,1.02
2023-04-06T15:10:44.339Z,1.40
2023-04-06T15:13:11.774Z,1.13
2023-04-06T15:15:39.818Z,1.45
2023-04-06T15:18:08.539Z,1.45
2023-04-06T15:20:37.242Z,2.08
2023-04-06T15:23:07.881Z,2.00
2023-04-06T15:25:35.674Z,1.40
2023-04-06T15:28:03.430Z,2.28
2023-04-06T15:30:31.054Z,1.75
2023-04-06T15:33:02.377Z,2.55
2023-04-06T15:35:33.811Z,2.63
2023-04-06T15:38:01.595Z,1.60
2023-04-06T15:40:29.093Z,2.10
2023-04-06T15:42:56.590Z,2.38
2023-04-06T15:45:24.080Z,1.90
2023-04-06T15:47:52.041Z,2.08
2023-04-06T15:50:20.648Z,2.97
2023-04-06T15:52:48.341Z,2.10
2023-04-06T15:55:16.059Z,1.75
2023-04-06T15:57:43.535Z,1.95
2023-04-06T16:00:11.742Z,1.80
2023-04-06T16:02:39.601Z,2.45
2023-04-06T16:05:07.235Z,1.73
2023-04-06T16:07:36.103Z,2.55
2023-04-06T16:10:06.352Z,1.95
2023-04-06T16:12:34.624Z,1.90
2023-04-06T16:15:02.314Z,2.88
2023-04-06T16:17:30.172Z,2.10
2023-04-06T16:19:57.688Z,1.67
2023-04-06T16:22:25.622Z,2.35
2023-04-06T16:24:53.176Z,3.67
2023-04-06T16:27:20.684Z,1.77
2023-04-06T16:29:48.265Z,2.13
2023-04-06T16:32:16.177Z,1.70
2023-04-06T16:34:47.635Z,1.85
2023-04-06T16:37:15.239Z,2.30
2023-04-06T16:39:42.701Z,1.98
2023-04-06T16:42:10.225Z,2.20
2023-04-06T16:44:37.850Z,1.55
2023-04-06T16:47:05.390Z,1.95
2023-04-06T16:49:32.849Z,1.80
2023-04-06T16:52:04.140Z,2.00
2023-04-06T16:54:31.719Z,2.38
2023-04-06T16:56:59.172Z,2.22
2023-04-06T16:59:26.916Z,2.08
2023-04-06T17:01:54.729Z,2.22
2023-04-06T17:04:23.354Z,1.90
2023-04-06T17:06:50.979Z,2.45
2023-04-06T17:09:18.617Z,1.73
2023-04-06T17:11:47.167Z,1.92
2023-04-06T17:14:14.967Z,2.40
2023-04-06T17:16:43.293Z,1.80
2023-04-06T17:19:11.023Z,1.77
2023-04-06T17:21:39.962Z,1.80
2023-04-06T17:24:07.814Z,2.72
2023-04-06T17:26:35.538Z,2.60
2023-04-06T17:29:03.187Z,1.50
2023-04-06T17:31:30.682Z,2.15
2023-04-06T17:33:58.257Z,2.08
2023-04-06T17:36:28.620Z,1.52
2023-04-06T17:38:56.136Z,1.60
2023-04-06T17:41:24.129Z,2.88
2023-04-06T17:43:52.239Z,2.40
2023-04-06T17:46:21.643Z,1.85
2023-04-06T17:48:51.054Z,3.30
2023-04-06T17:51:20.492Z,1.85
2023-04-06T17:53:48.293Z,2.67
2023-04-06T17:56:18.638Z,1.85
2023-04-06T17:58:46.297Z,1.58
2023-04-06T18:01:15.862Z,2.35
2023-04-06T18:03:43.360Z,1.52
2023-04-06T18:06:14.661Z,3.08
2023-04-06T18:08:42.493Z,2.08
2023-04-06T18:11:17.849Z,1.95
2023-04-06T18:13:46.132Z,2.10
2023-04-06T18:19:05.281Z,1.75
2023-04-06T18:21:33.107Z,2.28
2023-04-06T18:24:04.919Z,1.95
2023-04-06T18:26:37.382Z,2.38
2023-04-06T18:29:05.049Z,1.60
2023-04-06T18:31:33.509Z,2.42
2023-04-06T18:34:04.059Z,1.83
2023-04-06T18:36:32.466Z,1.60
2023-04-06T18:38:59.948Z,2.22
2023-04-06T18:41:27.517Z,1.70
2023-04-06T18:43:55.278Z,2.60
2023-04-06T18:46:23.455Z,1.98
2023-04-06T18:48:51.112Z,1.10
2023-04-06T18:51:19.763Z,2.95
2023-04-06T18:53:47.463Z,2.10
2023-04-06T18:56:19.711Z,2.30
2023-04-06T18:58:48.834Z,1.60
2023-04-06T19:01:27.115Z,2.50
2023-04-06T19:03:55.582Z,2.33
2023-04-06T19:06:23.815Z,2.45
2023-04-06T19:08:51.910Z,1.73
2023-04-06T19:11:20.386Z,2.92
2023-04-06T19:13:50.610Z,2.55
2023-04-06T19:16:18.616Z,3.00
2023-04-06T19:18:46.225Z,2.60
2023-04-06T19:21:17.796Z,2.10
2023-04-06T19:23:46.211Z,2.20
2023-04-06T19:26:14.180Z,3.33
2023-04-06T19:28:41.825Z,3.10
2023-04-06T19:31:10.012Z,3.80
2023-04-06T19:33:41.300Z,3.45
2023-04-06T19:36:12.047Z,2.70
2023-04-06T19:38:39.907Z,2.95
2023-04-06T19:41:09.181Z,3.10
2023-04-06T19:43:36.745Z,2.15
2023-04-06T19:46:05.259Z,2.25
2023-04-06T19:48:34.526Z,2.28
2023-04-06T19:51:05.102Z,2.55
2023-04-06T19:53:32.528Z,2.03
2023-04-06T19:56:00.075Z,2.80
2023-04-06T19:58:27.662Z,2.13
2023-04-06T20:00:55.370Z,2.35
2023-04-06T20:03:23.128Z,2.28
2023-04-06T20:05:50.992Z,2.00
2023-04-06T20:08:18.838Z,2.53
2023-04-06T20:10:46.372Z,3.20
2023-04-06T20:13:13.914Z,2.20
2023-04-06T20:15:41.730Z,4.20
2023-04-06T20:18:09.345Z,1.75
2023-04-06T20:20:36.955Z,1.48
2023-04-06T20:23:04.684Z,2.47
2023-04-06T20:25:33.016Z,2.70
2023-04-06T20:28:00.618Z,2.92
2023-04-06T20:30:28.152Z,2.28
2023-04-06T20:32:55.700Z,2.17
2023-04-06T20:35:23.254Z,2.45
2023-04-06T20:37:51.837Z,2.30
2023-04-06T20:40:20.324Z,2.25
2023-04-06T20:42:49.554Z,2.08
2023-04-06T20:45:20.154Z,2.15
2023-04-06T20:47:47.874Z,1.95
2023-04-06T20:50:15.521Z,2.10
2023-04-06T20:52:43.567Z,2.38
2023-04-06T20:55:13.592Z,1.92
2023-04-06T20:57:41.299Z,1.75
2023-04-06T21:00:09.957Z,2.42
2023-04-06T21:02:38.013Z,2.17
2023-04-06T21:05:05.976Z,2.20
2023-04-06T21:07:33.674Z,1.67
2023-04-06T21:10:01.818Z,2.80
2023-04-06T21:12:29.822Z,1.15
2023-04-06T21:14:57.432Z,2.78
2023-04-06T21:17:25.216Z,1.60
2023-04-06T21:19:52.767Z,1.88
2023-04-06T21:22:20.239Z,2.28
2023-04-06T21:24:47.690Z,1.63
2023-04-06T21:27:15.221Z,1.73
2023-04-06T21:29:42.772Z,1.27
2023-04-06T21:32:10.434Z,2.47
2023-04-06T21:34:38.001Z,1.00
2023-04-06T21:37:05.472Z,1.92
2023-04-06T21:39:33.029Z,0.75
2023-04-06T21:42:00.693Z,1.30
2023-04-06T21:44:30.293Z,1.30
2023-04-06T21:46:57.847Z,1.02
2023-04-06T21:49:25.439Z,0.90
2023-04-06T21:51:55.412Z,1.00
2023-04-06T21:54:23.036Z,1.33
2023-04-06T21:56:50.564Z,1.90
2023-04-06T21:59:18.322Z,1.10
2023-04-06T22:01:45.955Z,1.10
2023-04-06T22:04:13.778Z,1.17
2023-04-06T22:06:42.525Z,0.82
2023-04-06T22:09:13.600Z,0.90
2023-04-06T22:11:41.252Z,0.95
2023-04-06T22:14:08.752Z,0.95
2023-04-06T22:16:36.272Z,1.23
2023-04-06T22:19:03.853Z,0.73
2023-04-06T22:21:32.013Z,0.75
2023-04-06T22:23:59.581Z,1.15
2023-04-06T22:26:27.211Z,0.68
2023-04-06T22:28:54.780Z,0.77
2023-04-06T22:31:22.679Z,0.80
2023-04-06T22:33:50.317Z,1.00
2023-04-06T22:36:18.248Z,0.82
2023-04-06T22:38:45.796Z,0.60
2023-04-06T22:41:13.309Z,0.98
2023-04-06T22:43:41.051Z,0.43
2023-04-06T22:46:08.686Z,0.80
2023-04-06T22:48:36.326Z,1.10
2023-04-06T22:51:03.811Z,0.80
2023-04-06T22:53:31.509Z,0.90
2023-04-06T22:55:59.213Z,0.70
2023-04-06T22:58:26.925Z,0.52
2023-04-06T23:00:54.630Z,0.70
2023-04-06T23:03:22.702Z,1.90
2023-04-06T23:05:50.495Z,1.20
2023-04-06T23:08:18.304Z,0.77
2023-04-06T23:10:46.125Z,0.80
2023-04-06T23:13:14.452Z,1.10
2023-04-06T23:15:42.060Z,2.80
2023-04-06T23:18:09.772Z,1.95
2023-04-06T23:20:37.626Z,1.52
2023-04-06T23:23:05.252Z,2.88
2023-04-06T23:25:32.846Z,1.17
2023-04-06T23:28:00.320Z,2.75
2023-04-06T23:30:27.885Z,1.67
2023-04-06T23:32:55.799Z,0.88
2023-04-06T23:35:23.465Z,1.20
2023-04-06T23:37:50.794Z,1.55
2023-04-06T23:40:18.872Z,12.88
2023-04-06T23:42:46.464Z,9.45
2023-04-06T23:45:14.057Z,5.60
2023-04-06T23:47:41.674Z,7.68
2023-04-06T23:50:09.587Z,4.03
2023-04-06T23:52:37.114Z,1.20
2023-04-06T23:55:04.793Z,1.95
2023-04-06T23:57:32.436Z,1.50
